Etusivu
METAR-TAF:

METAR-TAF

Lentoasemat :

Marianna Municipal Airport

Marianna, Florida, Yhdysvallat

Leveyspiiri: 30-50-12N, Pituuspiiri: 085-11-01W, korkeus merenpinnasta: 34 m

Tämänhetkinen sää

Tämä raportti tehtiin 17 minuuttia sitten, kello 10.29 UTC
tyyntä
Lämpötila 17°C
Kosteus 94%
Ilmanpaine 1013 hPa
Näkyvyys: 6.4 km
Hajanaisia pilviä 500 ft:n korkeudessa
Hajonneita pilviä 1700 ft:n korkeudessa
Pilvistä 2300 ft:n korkeudessa
heikkoa sadetta, utua

METAR: KMAI 221029Z AUTO 00000KT 4SM -RA BR SCT005 BKN017 OVC023 17/16 A2991 RMK AO2 P0004 T01670161

Aika: 04:46 (10:46 UTC)


TAF: puuttuu

Säähavainnot ja -ennusteet yli 4000 lentoasemalta (METAR- ja TAF-raportit).

Käytössä olevat sääasemat on merkitty karttaan keltaisilla ja punaisilla pisteillä.

Aseta hiiri pisteen päälle nähdäksesi sääaseman nimen.

Klikkaa sitten nähdäksesi säähavainnot ja -ennusteet.

Kartan vaihtaminen: klikkaa mustalla rastilla varustettuja vihreitä pisteitä, niin voit zoomata sisään; viivalla varustettua vihreää pistettä, niin voit zoomata ulos tai vihreitä nuolia, niin pääset viereisille kartoille.


METAR-TAF: